createdAt,value
2019-05-17T00:01:42.428Z,85.00
2019-05-17T00:04:12.800Z,84.90
2019-05-17T00:06:43.192Z,84.70
2019-05-17T00:09:13.561Z,84.60
2019-05-17T00:11:43.952Z,85.20
2019-05-17T00:14:16.618Z,85.90
2019-05-17T00:16:47.017Z,86.00
2019-05-17T00:19:17.487Z,86.30
2019-05-17T00:21:47.867Z,86.20
2019-05-17T00:24:19.304Z,86.20
2019-05-17T00:26:49.709Z,86.70
2019-05-17T00:29:20.086Z,87.20
2019-05-17T00:31:50.673Z,87.00
2019-05-17T00:34:21.043Z,87.30
2019-05-17T00:36:52.496Z,87.30
2019-05-17T00:39:22.872Z,86.90
2019-05-17T00:41:53.777Z,87.80
2019-05-17T00:44:24.146Z,87.40
2019-05-17T00:46:54.536Z,87.60
2019-05-17T00:49:26.446Z,88.00
2019-05-17T00:51:56.949Z,87.90
2019-05-17T00:54:27.311Z,88.10
2019-05-17T00:56:57.887Z,88.20
2019-05-17T00:59:28.253Z,87.70
2019-05-17T01:01:58.651Z,87.70
2019-05-17T01:04:29.023Z,87.60
2019-05-17T01:06:59.538Z,88.10
2019-05-17T01:09:29.906Z,88.20
2019-05-17T01:12:00.368Z,88.30
2019-05-17T01:14:30.744Z,88.20
2019-05-17T01:17:01.133Z,87.80
2019-05-17T01:19:31.516Z,87.80
2019-05-17T01:22:01.905Z,88.10
2019-05-17T01:24:32.775Z,88.20
2019-05-17T01:27:03.159Z,88.30
2019-05-17T01:29:33.525Z,88.00
2019-05-17T01:32:06.524Z,87.70
2019-05-17T01:34:37.644Z,88.10
2019-05-17T01:37:08.283Z,87.90
2019-05-17T01:39:38.663Z,87.80
2019-05-17T01:42:09.050Z,88.30
2019-05-17T01:44:39.429Z,88.20
2019-05-17T01:47:09.886Z,88.60
2019-05-17T01:49:40.257Z,88.50
2019-05-17T01:52:10.656Z,88.40
2019-05-17T01:54:41.294Z,88.60
2019-05-17T01:57:11.680Z,88.40
2019-05-17T01:59:42.092Z,88.80
2019-05-17T02:02:16.308Z,88.60
2019-05-17T02:04:46.766Z,88.50
2019-05-17T02:07:17.379Z,88.00
2019-05-17T02:09:47.850Z,88.40
2019-05-17T02:12:19.200Z,88.30
2019-05-17T02:14:49.558Z,88.50
2019-05-17T02:17:20.022Z,88.30
2019-05-17T02:19:50.390Z,88.00
2019-05-17T02:22:20.777Z,88.00
2019-05-17T02:24:51.147Z,88.10
2019-05-17T02:27:24.276Z,88.00
2019-05-17T02:29:54.003Z,88.00
2019-05-17T02:32:24.757Z,88.60
2019-05-17T02:34:55.128Z,88.20
2019-05-17T02:37:25.639Z,88.70
2019-05-17T02:40:03.230Z,88.80
2019-05-17T02:42:28.897Z,89.00
2019-05-17T02:45:02.623Z,89.30
2019-05-17T02:47:33.582Z,89.90
2019-05-17T02:50:05.643Z,89.80
2019-05-17T02:52:36.328Z,89.40
2019-05-17T02:55:07.897Z,90.10
2019-05-17T02:57:38.296Z,90.20
2019-05-17T03:00:12.549Z,90.30
2019-05-17T03:02:43.412Z,89.70
2019-05-17T03:05:14.435Z,90.00
2019-05-17T03:07:44.873Z,90.20
2019-05-17T03:10:23.946Z,90.30
2019-05-17T03:12:47.657Z,90.20
2019-05-17T03:15:18.193Z,90.50
2019-05-17T03:17:48.873Z,90.80
2019-05-17T03:20:22.924Z,90.90
2019-05-17T03:22:52.725Z,91.10
2019-05-17T03:25:24.030Z,91.00
2019-05-17T03:27:54.464Z,91.20
2019-05-17T03:30:26.184Z,91.30
2019-05-17T03:32:57.347Z,91.20
2019-05-17T03:35:27.769Z,91.60
2019-05-17T03:37:58.207Z,91.50
2019-05-17T03:40:56.555Z,91.40
2019-05-17T03:43:02.768Z,91.50
2019-05-17T03:45:34.439Z,91.80
2019-05-17T03:48:05.383Z,91.60
2019-05-17T03:50:35.874Z,91.90
2019-05-17T03:53:06.244Z,91.70
2019-05-17T03:55:36.646Z,91.50
2019-05-17T03:58:07.014Z,91.40
2019-05-17T04:00:37.396Z,91.60
2019-05-17T04:03:07.786Z,91.60
2019-05-17T04:05:38.158Z,91.60
2019-05-17T04:08:08.550Z,91.40
2019-05-17T04:10:42.364Z,91.40
2019-05-17T04:13:12.922Z,91.50
2019-05-17T04:15:43.506Z,91.40
2019-05-17T04:18:14.315Z,91.30
2019-05-17T04:20:44.681Z,91.30
2019-05-17T04:23:15.180Z,91.20
2019-05-17T04:25:46.625Z,91.00
2019-05-17T04:28:17.104Z,91.00
2019-05-17T04:30:47.477Z,90.80
2019-05-17T04:33:17.891Z,90.70
2019-05-17T04:35:48.248Z,90.70
2019-05-17T04:38:18.806Z,90.90
2019-05-17T04:40:49.163Z,90.50
2019-05-17T04:43:22.898Z,90.40
2019-05-17T04:45:53.526Z,90.30
2019-05-17T04:48:24.263Z,90.30
2019-05-17T04:50:54.640Z,90.20
2019-05-17T04:53:25.035Z,89.40
2019-05-17T04:55:55.409Z,89.40
2019-05-17T04:58:26.046Z,88.80
2019-05-17T05:00:57.403Z,88.50
2019-05-17T05:03:27.791Z,88.00
2019-05-17T05:05:58.179Z,87.90
2019-05-17T05:08:32.912Z,87.90
2019-05-17T05:11:03.218Z,87.70
2019-05-17T05:13:33.521Z,87.90
2019-05-17T05:16:04.089Z,88.00
2019-05-17T05:18:34.487Z,87.20
2019-05-17T05:21:04.867Z,87.10
2019-05-17T05:23:35.250Z,87.30
2019-05-17T05:26:05.687Z,86.80
2019-05-17T05:28:36.107Z,87.00
2019-05-17T05:31:06.484Z,87.00
2019-05-17T05:33:36.881Z,87.00
2019-05-17T05:36:07.820Z,87.10
2019-05-17T05:38:38.211Z,87.10
2019-05-17T05:41:12.071Z,88.00
2019-05-17T05:43:42.029Z,86.80
2019-05-17T05:46:12.508Z,87.30
2019-05-17T05:48:43.006Z,86.60
2019-05-17T05:51:13.842Z,86.70
2019-05-17T05:53:44.621Z,86.50
2019-05-17T05:56:15.017Z,86.70
2019-05-17T05:58:45.411Z,87.00
2019-05-17T06:01:15.777Z,86.60
2019-05-17T06:03:46.172Z,86.60
2019-05-17T06:06:16.546Z,85.90
2019-05-17T06:08:46.950Z,85.70
2019-05-17T06:11:17.327Z,86.30
2019-05-17T06:13:47.737Z,84.60
2019-05-17T06:16:18.140Z,84.80
2019-05-17T06:18:48.547Z,84.80
2019-05-17T06:21:18.924Z,83.00
2019-05-17T06:23:51.539Z,82.90
2019-05-17T06:26:23.740Z,83.30
2019-05-17T06:28:53.639Z,81.80
2019-05-17T06:31:24.209Z,82.40
2019-05-17T06:33:54.686Z,82.30
2019-05-17T06:36:25.064Z,82.20
2019-05-17T06:38:55.439Z,82.70
2019-05-17T06:41:25.808Z,82.60
2019-05-17T06:43:56.210Z,82.20
2019-05-17T06:46:26.580Z,82.20
2019-05-17T06:48:56.970Z,82.20
2019-05-17T06:51:27.343Z,81.80
2019-05-17T06:53:57.736Z,82.70
2019-05-17T06:56:28.103Z,82.70
2019-05-17T06:58:58.499Z,82.50
2019-05-17T07:01:29.272Z,82.80
2019-05-17T07:04:00.278Z,82.10
2019-05-17T07:06:32.472Z,82.10
2019-05-17T07:09:02.942Z,82.30
2019-05-17T07:11:33.390Z,81.10
2019-05-17T07:14:03.857Z,79.60
2019-05-17T07:16:34.239Z,79.80
2019-05-17T07:19:04.648Z,79.60
2019-05-17T07:21:35.015Z,80.00
2019-05-17T07:24:05.432Z,79.20
2019-05-17T07:26:39.232Z,77.90
2019-05-17T07:29:10.100Z,78.20
2019-05-17T07:31:40.654Z,78.20
2019-05-17T07:34:11.076Z,77.60
2019-05-17T07:36:41.454Z,76.60
2019-05-17T07:39:11.834Z,76.30
2019-05-17T07:41:42.206Z,75.90
2019-05-17T07:44:12.598Z,74.50
2019-05-17T07:46:43.050Z,70.10
2019-05-17T07:49:13.529Z,71.10
2019-05-17T07:51:43.896Z,66.40
2019-05-17T07:54:14.280Z,67.40
2019-05-17T07:56:45.414Z,68.60
2019-05-17T07:59:15.815Z,66.30
2019-05-17T08:01:46.183Z,67.20
2019-05-17T08:04:16.555Z,67.30
2019-05-17T08:06:46.920Z,67.50
2019-05-17T08:09:20.458Z,67.50
2019-05-17T08:11:50.603Z,68.70
2019-05-17T08:14:29.546Z,69.50
2019-05-17T08:16:53.186Z,65.40
2019-05-17T08:19:23.568Z,64.70
2019-05-17T08:21:54.022Z,62.90
2019-05-17T08:24:24.405Z,57.90
2019-05-17T08:26:54.784Z,58.90
2019-05-17T08:29:25.283Z,58.40
2019-05-17T08:31:55.660Z,61.10
2019-05-17T08:34:26.045Z,58.30
2019-05-17T08:36:56.404Z,59.20
2019-05-17T08:39:26.796Z,59.40
2019-05-17T08:41:57.247Z,59.00
2019-05-17T08:44:29.805Z,58.20
2019-05-17T08:47:00.850Z,58.70
2019-05-17T08:49:31.309Z,59.60
2019-05-17T08:52:01.674Z,59.20
2019-05-17T08:54:32.061Z,59.40
2019-05-17T08:57:02.443Z,58.50
2019-05-17T08:59:32.841Z,58.90
2019-05-17T09:02:03.214Z,58.70
2019-05-17T09:04:34.675Z,59.40
2019-05-17T09:07:05.124Z,60.70
2019-05-17T09:09:35.503Z,60.40
2019-05-17T09:12:05.945Z,59.30
2019-05-17T09:14:36.334Z,60.70
2019-05-17T09:17:06.709Z,60.50
2019-05-17T09:19:39.356Z,60.20
2019-05-17T09:22:10.454Z,60.00
2019-05-17T09:24:41.103Z,59.80
2019-05-17T09:27:11.483Z,59.40
2019-05-17T09:29:41.892Z,60.50
2019-05-17T09:32:12.270Z,61.30
2019-05-17T09:34:42.640Z,62.20
2019-05-17T09:37:14.872Z,61.20
2019-05-17T09:39:45.121Z,62.00
2019-05-17T09:42:15.483Z,62.70
2019-05-17T09:44:45.887Z,63.30
2019-05-17T09:47:16.259Z,62.80
2019-05-17T09:49:46.659Z,63.10
2019-05-17T09:52:17.023Z,63.20
2019-05-17T09:54:47.419Z,63.80
2019-05-17T09:57:20.269Z,63.90
2019-05-17T09:59:49.948Z,63.80
2019-05-17T10:02:20.538Z,63.70
2019-05-17T10:04:50.986Z,64.30
2019-05-17T10:07:21.352Z,62.30
2019-05-17T10:09:52.575Z,62.40
2019-05-17T10:12:22.942Z,62.20
2019-05-17T10:14:53.341Z,61.10
2019-05-17T10:17:23.711Z,60.90
2019-05-17T10:19:54.104Z,62.20
2019-05-17T10:22:24.539Z,60.80
2019-05-17T10:24:54.992Z,59.50
2019-05-17T10:27:25.360Z,58.80
2019-05-17T10:29:55.942Z,59.80
2019-05-17T10:32:26.311Z,60.00
2019-05-17T10:34:56.705Z,60.80
2019-05-17T10:37:27.081Z,61.10
2019-05-17T10:39:57.462Z,60.80
2019-05-17T10:42:30.433Z,60.60
2019-05-17T10:45:00.982Z,60.30
2019-05-17T10:47:31.428Z,60.30
2019-05-17T10:50:01.815Z,61.10
2019-05-17T10:52:32.277Z,61.70
2019-05-17T10:55:02.654Z,61.80
2019-05-17T10:57:34.617Z,60.80
2019-05-17T11:00:10.767Z,60.70
2019-05-17T11:02:41.279Z,60.50
2019-05-17T11:05:12.309Z,59.30
2019-05-17T11:07:42.680Z,60.00
2019-05-17T11:10:13.773Z,58.10
2019-05-17T11:12:44.137Z,58.40
2019-05-17T11:15:15.031Z,57.90
2019-05-17T11:17:45.402Z,56.20
2019-05-17T11:20:16.398Z,55.30
2019-05-17T11:22:46.836Z,56.10
2019-05-17T11:25:17.357Z,56.10
2019-05-17T11:27:47.750Z,56.90
2019-05-17T11:30:19.715Z,55.50
2019-05-17T11:32:50.087Z,57.30
2019-05-17T11:35:24.610Z,57.80
2019-05-17T11:37:53.554Z,56.30
2019-05-17T11:40:24.357Z,57.20
2019-05-17T11:42:54.732Z,56.00
2019-05-17T11:45:29.065Z,57.20
2019-05-17T11:47:57.251Z,54.70
2019-05-17T11:50:27.714Z,54.60
2019-05-17T11:52:58.093Z,56.10
2019-05-17T11:55:28.686Z,55.30
2019-05-17T11:57:59.046Z,54.10
2019-05-17T12:00:30.238Z,53.60
2019-05-17T12:03:00.605Z,53.10
2019-05-17T12:05:31.541Z,53.30
2019-05-17T12:08:01.914Z,52.10
2019-05-17T12:10:32.906Z,53.00
2019-05-17T12:13:03.308Z,52.20
2019-05-17T12:15:44.577Z,53.00
2019-05-17T12:18:05.861Z,52.90
2019-05-17T12:20:36.238Z,53.90
2019-05-17T12:23:06.605Z,54.40
2019-05-17T12:25:37.003Z,54.20
2019-05-17T12:28:07.375Z,55.30
2019-05-17T12:30:37.839Z,54.70
2019-05-17T12:33:08.201Z,54.30
2019-05-17T12:35:38.583Z,54.40
2019-05-17T12:38:08.955Z,55.10
2019-05-17T12:40:39.346Z,55.20
2019-05-17T12:43:09.731Z,55.50
2019-05-17T12:45:40.116Z,55.40
2019-05-17T12:48:10.506Z,56.20
2019-05-17T12:50:40.911Z,56.50
2019-05-17T12:53:11.278Z,56.20
2019-05-17T12:55:41.750Z,56.30
2019-05-17T12:58:12.128Z,56.30
2019-05-17T13:00:42.525Z,56.80
2019-05-17T13:03:12.921Z,57.00
2019-05-17T13:05:43.294Z,57.60
2019-05-17T13:08:13.680Z,57.20
2019-05-17T13:10:44.132Z,58.00
2019-05-17T13:13:14.500Z,56.90
2019-05-17T13:15:45.235Z,57.30
2019-05-17T13:18:15.600Z,56.90
2019-05-17T13:20:45.993Z,57.20
2019-05-17T13:23:16.372Z,57.00
2019-05-17T13:25:47.599Z,56.70
2019-05-17T13:28:17.977Z,56.80
2019-05-17T13:30:49.101Z,56.90
2019-05-17T13:33:19.469Z,56.90
2019-05-17T13:35:49.831Z,57.70
2019-05-17T13:38:20.522Z,57.10
2019-05-17T13:40:51.174Z,57.40
2019-05-17T13:43:21.602Z,56.90
2019-05-17T13:45:51.970Z,56.60
2019-05-17T13:48:22.358Z,56.80
2019-05-17T13:50:52.845Z,57.10
2019-05-17T13:53:23.303Z,57.80
2019-05-17T13:55:53.699Z,57.80
2019-05-17T13:58:24.087Z,57.20
2019-05-17T14:00:54.468Z,57.20
2019-05-17T14:03:24.898Z,57.50
2019-05-17T14:05:55.245Z,57.30
2019-05-17T14:08:25.649Z,58.10
2019-05-17T14:10:56.021Z,58.40
2019-05-17T14:13:26.602Z,57.50
2019-05-17T14:15:56.954Z,57.50
2019-05-17T14:18:27.353Z,57.40
2019-05-17T14:20:57.766Z,58.00
2019-05-17T14:23:28.155Z,57.50
2019-05-17T14:25:58.639Z,58.00
2019-05-17T14:28:29.102Z,57.40
2019-05-17T14:30:59.465Z,57.60
2019-05-17T14:33:29.977Z,57.50
2019-05-17T14:36:00.438Z,58.00
2019-05-17T14:38:31.898Z,58.40
2019-05-17T14:41:07.847Z,58.30
2019-05-17T14:43:34.414Z,58.30
2019-05-17T14:46:05.858Z,58.90
2019-05-17T14:48:36.496Z,58.60
2019-05-17T14:51:06.877Z,59.20
2019-05-17T14:53:37.469Z,59.40
2019-05-17T14:56:07.840Z,59.80
2019-05-17T14:58:39.675Z,60.10
2019-05-17T15:01:10.068Z,60.30
2019-05-17T15:03:40.451Z,60.80
2019-05-17T15:06:11.221Z,61.20
2019-05-17T15:08:41.590Z,61.10
2019-05-17T15:11:12.094Z,61.60
2019-05-17T15:13:42.618Z,61.70
2019-05-17T15:16:13.005Z,62.10
2019-05-17T15:18:43.371Z,62.30
2019-05-17T15:21:13.761Z,62.60
2019-05-17T15:23:44.134Z,62.90
2019-05-17T15:26:14.543Z,62.80
2019-05-17T15:28:44.894Z,63.40
2019-05-17T15:31:15.279Z,63.90
2019-05-17T15:33:46.743Z,64.30
2019-05-17T15:36:17.434Z,64.60
2019-05-17T15:38:47.743Z,64.50
2019-05-17T15:41:18.159Z,64.80
2019-05-17T15:43:48.510Z,65.00
2019-05-17T15:46:19.247Z,65.10
2019-05-17T15:48:49.621Z,65.20
2019-05-17T15:51:20.013Z,65.50
2019-05-17T15:53:50.381Z,65.10
2019-05-17T15:56:21.006Z,65.40
2019-05-17T15:58:51.383Z,65.50
2019-05-17T16:01:21.788Z,65.60
2019-05-17T16:03:52.179Z,65.60
2019-05-17T16:06:22.724Z,65.70
2019-05-17T16:08:53.101Z,65.40
2019-05-17T16:11:23.490Z,65.50
2019-05-17T16:13:53.861Z,65.60
2019-05-17T16:16:24.254Z,65.80
2019-05-17T16:18:54.616Z,65.90
2019-05-17T16:21:25.016Z,66.00
2019-05-17T16:23:55.387Z,66.40
2019-05-17T16:26:25.790Z,66.10
2019-05-17T16:28:56.164Z,66.20
2019-05-17T16:31:26.550Z,66.80
2019-05-17T16:33:56.922Z,66.60
2019-05-17T16:36:27.330Z,66.40
2019-05-17T16:38:57.711Z,66.40
2019-05-17T16:41:28.231Z,66.40
2019-05-17T16:43:58.607Z,66.70
2019-05-17T16:46:29.192Z,66.80
2019-05-17T16:49:00.537Z,66.90
2019-05-17T16:51:30.928Z,67.10
2019-05-17T16:54:01.303Z,67.50
2019-05-17T16:56:31.716Z,67.40
2019-05-17T16:59:02.489Z,67.50
2019-05-17T17:01:32.986Z,68.60
2019-05-17T17:04:03.381Z,67.70
2019-05-17T17:06:33.820Z,67.70
2019-05-17T17:09:05.427Z,68.00
2019-05-17T17:11:35.817Z,68.20
2019-05-17T17:14:06.591Z,68.10
2019-05-17T17:16:36.985Z,68.60
2019-05-17T17:19:07.626Z,68.50
2019-05-17T17:21:38.020Z,68.70
2019-05-17T17:24:08.391Z,68.90
2019-05-17T17:26:38.895Z,68.90
2019-05-17T17:29:10.309Z,68.40
2019-05-17T17:31:40.902Z,68.90
2019-05-17T17:34:11.285Z,69.20
2019-05-17T17:36:41.686Z,69.20
2019-05-17T17:39:12.060Z,69.10
2019-05-17T17:41:42.466Z,69.30
2019-05-17T17:44:12.923Z,69.30
2019-05-17T17:46:45.763Z,69.60
2019-05-17T17:49:16.156Z,69.50
2019-05-17T17:51:46.539Z,69.80
2019-05-17T17:54:16.906Z,69.80
2019-05-17T17:56:47.277Z,70.10
2019-05-17T17:59:17.663Z,70.20
2019-05-17T18:01:48.078Z,70.20
2019-05-17T18:04:18.531Z,70.20
2019-05-17T18:06:48.904Z,70.20
2019-05-17T18:09:19.307Z,70.00
2019-05-17T18:11:49.676Z,70.20
2019-05-17T18:14:20.051Z,71.20
2019-05-17T18:16:50.427Z,71.10
2019-05-17T18:19:20.870Z,70.60
2019-05-17T18:21:51.285Z,70.70
2019-05-17T18:24:21.647Z,70.70
2019-05-17T18:26:52.061Z,70.80
2019-05-17T18:29:22.441Z,70.80
2019-05-17T18:31:52.847Z,71.00
2019-05-17T18:34:23.218Z,71.20
2019-05-17T18:36:53.618Z,72.10
2019-05-17T18:39:23.985Z,71.80
2019-05-17T18:41:54.960Z,72.20
2019-05-17T18:44:28.124Z,72.20
2019-05-17T18:46:58.750Z,73.90
2019-05-17T18:49:29.128Z,73.90
2019-05-17T18:51:59.523Z,74.10
2019-05-17T18:54:30.869Z,74.70
2019-05-17T18:57:01.261Z,75.40
2019-05-17T18:59:31.626Z,75.20
2019-05-17T19:02:02.054Z,76.20
2019-05-17T19:04:32.432Z,76.30
2019-05-17T19:07:02.824Z,77.00
2019-05-17T19:09:33.467Z,77.40
2019-05-17T19:12:04.169Z,77.10
2019-05-17T19:14:42.505Z,77.40
2019-05-17T19:17:06.638Z,78.30
2019-05-17T19:19:37.060Z,78.40
2019-05-17T19:22:07.404Z,78.80
2019-05-17T19:24:37.799Z,79.10
2019-05-17T19:27:08.190Z,79.60
2019-05-17T19:29:38.555Z,80.50
2019-05-17T19:32:08.951Z,80.30
2019-05-17T19:34:39.327Z,80.50
2019-05-17T19:37:09.718Z,80.70
2019-05-17T19:39:40.217Z,80.80
2019-05-17T19:42:10.687Z,81.10
2019-05-17T19:44:41.245Z,81.20
2019-05-17T19:47:11.620Z,81.30
2019-05-17T19:49:42.000Z,81.60
2019-05-17T19:52:12.442Z,83.30
2019-05-17T19:54:42.768Z,83.10
2019-05-17T19:57:13.167Z,83.10
2019-05-17T19:59:43.542Z,83.40
2019-05-17T20:02:13.947Z,83.40
2019-05-17T20:04:44.324Z,83.30
2019-05-17T20:07:15.039Z,83.60
2019-05-17T20:09:45.414Z,84.30
2019-05-17T20:12:17.727Z,84.30
2019-05-17T20:14:48.108Z,84.10
2019-05-17T20:17:18.502Z,84.30
2019-05-17T20:19:48.872Z,84.40
2019-05-17T20:22:19.337Z,84.50
2019-05-17T20:24:49.712Z,84.90
2019-05-17T20:27:20.119Z,84.90
2019-05-17T20:29:50.493Z,84.80
2019-05-17T20:32:20.911Z,85.00
2019-05-17T20:34:51.297Z,85.30
2019-05-17T20:37:21.734Z,85.10
2019-05-17T20:39:52.076Z,85.30
2019-05-17T20:42:22.477Z,85.60
2019-05-17T20:44:52.857Z,85.90
2019-05-17T20:47:23.270Z,85.90
2019-05-17T20:49:53.646Z,86.20
2019-05-17T20:52:24.296Z,87.00
2019-05-17T20:54:54.744Z,86.60
2019-05-17T20:57:25.139Z,87.30
2019-05-17T21:00:08.765Z,87.40
2019-05-17T21:02:39.186Z,87.50
2019-05-17T21:05:11.439Z,87.90
2019-05-17T21:07:41.834Z,87.70
2019-05-17T21:10:13.910Z,87.70
2019-05-17T21:12:45.565Z,87.70
2019-05-17T21:15:16.153Z,87.80
2019-05-17T21:17:46.550Z,87.50
2019-05-17T21:20:17.445Z,87.30
2019-05-17T21:22:47.835Z,87.30
2019-05-17T21:25:18.859Z,87.70
2019-05-17T21:27:49.269Z,87.60
2019-05-17T21:30:19.778Z,87.40
2019-05-17T21:32:50.190Z,87.50
2019-05-17T21:35:20.580Z,87.50
2019-05-17T21:37:52.046Z,87.80
2019-05-17T21:40:23.490Z,87.80
2019-05-17T21:42:53.908Z,88.40
2019-05-17T21:45:24.283Z,88.40
2019-05-17T21:47:54.986Z,88.70
2019-05-17T21:50:25.358Z,89.30
2019-05-17T21:52:55.870Z,89.50
2019-05-17T21:55:26.260Z,89.40
2019-05-17T21:57:56.708Z,89.50
2019-05-17T22:01:03.617Z,89.40
2019-05-17T22:03:34.089Z,89.70
2019-05-17T22:06:04.547Z,89.50
2019-05-17T22:08:34.962Z,89.70
2019-05-17T22:11:05.577Z,89.90
2019-05-17T22:13:36.303Z,90.10
2019-05-17T22:16:19.237Z,90.30
2019-05-17T22:18:38.907Z,90.30
2019-05-17T22:21:09.453Z,90.30
2019-05-17T22:23:39.885Z,90.20
2019-05-17T22:26:10.268Z,90.50
2019-05-17T22:28:40.739Z,90.40
2019-05-17T22:31:11.120Z,90.40
2019-05-17T22:33:41.826Z,90.40
2019-05-17T22:36:12.214Z,90.50
2019-05-17T22:38:42.620Z,90.50
2019-05-17T22:41:14.081Z,90.50
2019-05-17T22:43:44.485Z,90.50
2019-05-17T22:46:14.866Z,90.40
2019-05-17T22:48:45.273Z,90.50
2019-05-17T22:51:15.655Z,90.50
2019-05-17T22:53:46.360Z,90.70
2019-05-17T22:56:16.748Z,90.70
2019-05-17T22:58:47.163Z,90.80
2019-05-17T23:01:17.545Z,90.70
2019-05-17T23:03:47.958Z,90.80
2019-05-17T23:06:18.342Z,90.80
2019-05-17T23:08:48.776Z,90.80
2019-05-17T23:11:19.150Z,90.80
2019-05-17T23:13:49.575Z,90.80
2019-05-17T23:16:21.103Z,90.80
2019-05-17T23:19:06.519Z,90.70
2019-05-17T23:21:37.179Z,91.00
2019-05-17T23:24:07.927Z,90.90
2019-05-17T23:26:38.323Z,91.30
2019-05-17T23:29:09.795Z,90.90
2019-05-17T23:31:40.174Z,90.90
2019-05-17T23:34:10.573Z,90.90
2019-05-17T23:36:40.979Z,90.90
2019-05-17T23:39:11.394Z,91.30
2019-05-17T23:41:41.774Z,91.20
2019-05-17T23:44:12.190Z,91.10
2019-05-17T23:46:42.619Z,91.20
2019-05-17T23:49:13.025Z,91.20
2019-05-17T23:51:43.409Z,91.10
2019-05-17T23:54:34.698Z,91.10
2019-05-17T23:57:05.101Z,91.10
2019-05-17T23:59:35.507Z,91.30
